Forside
METAR-TAF:

METAR-TAF

Lufthavne :

Chicago, Illinois, USA

Breddekreds: 41-47-03N, længdekreds: 087-45-19W, højde: 188 m

Aktuelle vejr

Denne rapport blev lavet for 23 minutter siden, kl. 19:53 UTC
Vind 14 kt fra vestsydvest med vindstød på up til 21 kt
Temperatur 10°C
Fugtighed 37%
Tryk 1021 hPa
Sigt: 16.1 km
Nogle få skyer i en højde af 25000 ft

METAR: KMDW 221953Z 24014G21KT 10SM FEW250 10/M04 A3014 RMK AO2 SLP215 T01001039

Tid: 14:16 (20:16 UTC)

Vejrudsigter

Denne rapport blev lavet for 2 timer og 46 minutter siden, kl. 17:30 UTC
Foreløbig gælder fra 22 på 18 UTC til 23 på 24 UTC
Vind 14 kt fra sydvest med vindstød på up til 21 kt
Sigt: 10 km
skyfri
Fra 22 på 2300 UTC
Vind 11 kt fra sydsydvest
Sigt: 10 km
Spredte skyer i en højde af 20000 ft
Fra 23 på 1500 UTC
Vind 12 kt fra sydvest med vindstød på up til 18 kt
Sigt: 10 km
Spredte skyer i en højde af 20000 ft

TAF: KMDW 221730Z 2218/2324 22014G21KT P6SM SKC FM222300 21011KT P6SM SCT200 FM231500 22012G18KT P6SM SCT200

Vejrobservationer og prognoser fra mere end 4000 lufthavne (METAR og TAF).

De gule og røde prikker repræsenterer de meteorologiske stationer.

Flyt musen over at se navnet på stationen.

Så klik over at se vejr observationer og prognoser.

At skifte det kort: Klik på de grønne knapper med et sort kors for at zoome ind; på den grønne knap med en bindestreg for at zoome ud; eller på de grønne pile for tilstødende kort.


METAR-TAF: